sensor_id;sensor_type;location;lat;lon;timestamp;P1;durP1;ratioP1;P2;durP2;ratioP2
69910;SDS011;63555;49.920;17.868;2023-08-07T00:04:02;2.70;;;1.20;;
69910;SDS011;63555;49.920;17.868;2023-08-07T00:09:02;2.37;;;1.13;;
69910;SDS011;63555;49.920;17.868;2023-08-07T00:14:03;4.37;;;1.10;;
69910;SDS011;63555;49.920;17.868;2023-08-07T00:19:03;4.37;;;1.30;;
69910;SDS011;63555;49.920;17.868;2023-08-07T00:24:03;2.43;;;1.20;;
69910;SDS011;63555;49.920;17.868;2023-08-07T00:29:04;2.55;;;1.27;;
69910;SDS011;63555;49.920;17.868;2023-08-07T00:34:04;2.90;;;1.33;;
69910;SDS011;63555;49.920;17.868;2023-08-07T00:39:05;2.33;;;1.17;;
69910;SDS011;63555;49.920;17.868;2023-08-07T00:44:05;3.10;;;1.50;;
69910;SDS011;63555;49.920;17.868;2023-08-07T00:49:06;2.70;;;1.40;;
69910;SDS011;63555;49.920;17.868;2023-08-07T00:54:09;5.72;;;1.50;;
69910;SDS011;63555;49.920;17.868;2023-08-07T00:59:12;4.03;;;1.37;;
69910;SDS011;63555;49.920;17.868;2023-08-07T01:04:13;2.63;;;0.95;;
69910;SDS011;63555;49.920;17.868;2023-08-07T01:09:14;2.40;;;1.07;;
69910;SDS011;63555;49.920;17.868;2023-08-07T01:14:19;2.50;;;1.20;;
69910;SDS011;63555;49.920;17.868;2023-08-07T01:19:34;2.30;;;1.00;;
69910;SDS011;63555;49.920;17.868;2023-08-07T01:24:35;3.27;;;0.90;;
69910;SDS011;63555;49.920;17.868;2023-08-07T01:29:42;2.35;;;0.90;;
69910;SDS011;63555;49.920;17.868;2023-08-07T01:34:51;2.30;;;1.07;;
69910;SDS011;63555;49.920;17.868;2023-08-07T01:39:55;4.25;;;1.00;;
69910;SDS011;63555;49.920;17.868;2023-08-07T01:45:00;3.55;;;1.08;;
69910;SDS011;63555;49.920;17.868;2023-08-07T01:50:00;2.70;;;1.10;;
69910;SDS011;63555;49.920;17.868;2023-08-07T01:55:01;2.77;;;1.17;;
69910;SDS011;63555;49.920;17.868;2023-08-07T02:00:02;2.50;;;1.30;;
69910;SDS011;63555;49.920;17.868;2023-08-07T02:05:04;2.50;;;0.98;;
69910;SDS011;63555;49.920;17.868;2023-08-07T02:10:04;2.23;;;1.10;;
69910;SDS011;63555;49.920;17.868;2023-08-07T02:15:05;4.35;;;1.00;;
69910;SDS011;63555;49.920;17.868;2023-08-07T02:20:06;3.07;;;0.97;;
69910;SDS011;63555;49.920;17.868;2023-08-07T02:25:07;1.95;;;0.70;;
69910;SDS011;63555;49.920;17.868;2023-08-07T02:30:08;1.77;;;0.50;;
69910;SDS011;63555;49.920;17.868;2023-08-07T02:35:09;1.60;;;0.40;;
69910;SDS011;63555;49.920;17.868;2023-08-07T02:40:09;1.00;;;0.30;;
69910;SDS011;63555;49.920;17.868;2023-08-07T02:45:11;1.30;;;0.40;;
69910;SDS011;63555;49.920;17.868;2023-08-07T02:50:11;2.73;;;0.50;;
69910;SDS011;63555;49.920;17.868;2023-08-07T02:55:11;2.20;;;0.50;;
69910;SDS011;63555;49.920;17.868;2023-08-07T03:00:12;1.40;;;0.40;;
69910;SDS011;63555;49.920;17.868;2023-08-07T03:05:12;1.87;;;0.30;;
69910;SDS011;63555;49.920;17.868;2023-08-07T03:10:13;1.10;;;0.30;;
69910;SDS011;63555;49.920;17.868;2023-08-07T03:15:13;1.87;;;0.40;;
69910;SDS011;63555;49.920;17.868;2023-08-07T03:20:13;1.20;;;0.30;;
69910;SDS011;63555;49.920;17.868;2023-08-07T03:25:14;1.10;;;0.23;;
69910;SDS011;63555;49.920;17.868;2023-08-07T03:30:14;3.83;;;0.50;;
69910;SDS011;63555;49.920;17.868;2023-08-07T03:35:15;1.10;;;0.30;;
69910;SDS011;63555;49.920;17.868;2023-08-07T03:40:15;0.90;;;0.20;;
69910;SDS011;63555;49.920;17.868;2023-08-07T03:45:15;0.80;;;0.20;;
69910;SDS011;63555;49.920;17.868;2023-08-07T03:50:16;1.00;;;0.30;;
69910;SDS011;63555;49.920;17.868;2023-08-07T03:55:16;0.60;;;0.20;;
69910;SDS011;63555;49.920;17.868;2023-08-07T04:00:18;1.10;;;0.30;;
69910;SDS011;63555;49.920;17.868;2023-08-07T04:05:18;1.40;;;0.20;;
69910;SDS011;63555;49.920;17.868;2023-08-07T04:10:19;1.17;;;0.30;;
69910;SDS011;63555;49.920;17.868;2023-08-07T04:15:19;0.87;;;0.20;;
69910;SDS011;63555;49.920;17.868;2023-08-07T04:20:19;4.37;;;0.30;;
69910;SDS011;63555;49.920;17.868;2023-08-07T04:25:20;2.63;;;1.00;;
69910;SDS011;63555;49.920;17.868;2023-08-07T04:30:20;1.13;;;0.30;;
69910;SDS011;63555;49.920;17.868;2023-08-07T04:35:21;3.67;;;0.50;;
69910;SDS011;63555;49.920;17.868;2023-08-07T04:40:21;1.90;;;0.40;;
69910;SDS011;63555;49.920;17.868;2023-08-07T04:45:21;1.60;;;0.30;;
69910;SDS011;63555;49.920;17.868;2023-08-07T04:50:22;1.10;;;0.30;;
69910;SDS011;63555;49.920;17.868;2023-08-07T04:55:22;1.47;;;0.40;;
69910;SDS011;63555;49.920;17.868;2023-08-07T05:00:23;1.53;;;0.33;;
69910;SDS011;63555;49.920;17.868;2023-08-07T05:05:23;1.50;;;0.40;;
69910;SDS011;63555;49.920;17.868;2023-08-07T05:10:24;2.37;;;0.40;;
69910;SDS011;63555;49.920;17.868;2023-08-07T05:15:24;3.00;;;0.40;;
69910;SDS011;63555;49.920;17.868;2023-08-07T05:20:25;1.30;;;0.40;;
69910;SDS011;63555;49.920;17.868;2023-08-07T05:25:26;1.17;;;0.35;;
69910;SDS011;63555;49.920;17.868;2023-08-07T05:30:26;1.23;;;0.30;;
69910;SDS011;63555;49.920;17.868;2023-08-07T05:35:26;1.53;;;0.40;;
69910;SDS011;63555;49.920;17.868;2023-08-07T05:40:27;1.20;;;0.40;;
69910;SDS011;63555;49.920;17.868;2023-08-07T05:45:27;1.33;;;0.32;;
69910;SDS011;63555;49.920;17.868;2023-08-07T05:50:28;1.50;;;0.40;;
69910;SDS011;63555;49.920;17.868;2023-08-07T05:55:28;1.27;;;0.40;;
69910;SDS011;63555;49.920;17.868;2023-08-07T06:00:29;1.70;;;0.60;;
69910;SDS011;63555;49.920;17.868;2023-08-07T06:05:29;1.20;;;0.40;;
69910;SDS011;63555;49.920;17.868;2023-08-07T06:10:30;1.40;;;0.40;;
69910;SDS011;63555;49.920;17.868;2023-08-07T06:15:31;1.00;;;0.30;;
69910;SDS011;63555;49.920;17.868;2023-08-07T06:20:33;1.48;;;0.40;;
69910;SDS011;63555;49.920;17.868;2023-08-07T06:25:34;1.25;;;0.30;;
69910;SDS011;63555;49.920;17.868;2023-08-07T06:30:34;1.80;;;0.50;;
69910;SDS011;63555;49.920;17.868;2023-08-07T06:35:38;1.00;;;0.30;;
69910;SDS011;63555;49.920;17.868;2023-08-07T06:40:39;1.10;;;0.30;;
69910;SDS011;63555;49.920;17.868;2023-08-07T06:45:39;1.60;;;0.50;;
69910;SDS011;63555;49.920;17.868;2023-08-07T06:50:40;1.70;;;0.40;;
69910;SDS011;63555;49.920;17.868;2023-08-07T06:55:40;1.37;;;0.40;;
69910;SDS011;63555;49.920;17.868;2023-08-07T07:00:41;4.55;;;0.70;;
69910;SDS011;63555;49.920;17.868;2023-08-07T07:05:42;3.33;;;0.70;;
69910;SDS011;63555;49.920;17.868;2023-08-07T07:10:43;1.90;;;0.50;;
69910;SDS011;63555;49.920;17.868;2023-08-07T07:15:43;1.65;;;0.50;;
69910;SDS011;63555;49.920;17.868;2023-08-07T07:20:43;1.90;;;0.77;;
69910;SDS011;63555;49.920;17.868;2023-08-07T07:25:44;2.10;;;0.43;;
69910;SDS011;63555;49.920;17.868;2023-08-07T07:30:44;2.43;;;0.50;;
69910;SDS011;63555;49.920;17.868;2023-08-07T07:35:45;1.80;;;0.50;;
69910;SDS011;63555;49.920;17.868;2023-08-07T07:40:45;1.20;;;0.40;;
69910;SDS011;63555;49.920;17.868;2023-08-07T07:45:45;0.80;;;0.20;;
69910;SDS011;63555;49.920;17.868;2023-08-07T07:50:46;1.10;;;0.30;;
69910;SDS011;63555;49.920;17.868;2023-08-07T07:55:46;0.90;;;0.30;;
69910;SDS011;63555;49.920;17.868;2023-08-07T08:00:48;1.10;;;0.30;;
69910;SDS011;63555;49.920;17.868;2023-08-07T08:05:49;0.93;;;0.40;;
69910;SDS011;63555;49.920;17.868;2023-08-07T08:10:51;1.10;;;0.30;;
69910;SDS011;63555;49.920;17.868;2023-08-07T08:15:52;5.43;;;0.70;;
69910;SDS011;63555;49.920;17.868;2023-08-07T08:20:53;2.13;;;0.47;;
69910;SDS011;63555;49.920;17.868;2023-08-07T08:25:54;12.15;;;0.80;;
69910;SDS011;63555;49.920;17.868;2023-08-07T08:30:54;3.50;;;0.40;;
69910;SDS011;63555;49.920;17.868;2023-08-07T08:35:55;1.40;;;0.40;;
69910;SDS011;63555;49.920;17.868;2023-08-07T08:40:55;2.63;;;0.40;;
69910;SDS011;63555;49.920;17.868;2023-08-07T08:45:55;4.50;;;0.30;;
69910;SDS011;63555;49.920;17.868;2023-08-07T08:50:56;1.57;;;0.40;;
69910;SDS011;63555;49.920;17.868;2023-08-07T08:55:57;1.17;;;0.30;;
69910;SDS011;63555;49.920;17.868;2023-08-07T09:00:59;2.70;;;0.30;;
69910;SDS011;63555;49.920;17.868;2023-08-07T09:06:00;1.73;;;0.30;;
69910;SDS011;63555;49.920;17.868;2023-08-07T09:11:01;0.55;;;0.10;;
69910;SDS011;63555;49.920;17.868;2023-08-07T09:16:02;1.17;;;0.27;;
69910;SDS011;63555;49.920;17.868;2023-08-07T09:21:04;1.00;;;0.25;;
69910;SDS011;63555;49.920;17.868;2023-08-07T09:26:04;3.27;;;0.57;;
69910;SDS011;63555;49.920;17.868;2023-08-07T09:31:06;1.40;;;0.43;;
69910;SDS011;63555;49.920;17.868;2023-08-07T09:36:08;1.25;;;0.30;;
69910;SDS011;63555;49.920;17.868;2023-08-07T09:41:08;1.17;;;0.30;;
69910;SDS011;63555;49.920;17.868;2023-08-07T09:46:09;1.20;;;0.30;;
69910;SDS011;63555;49.920;17.868;2023-08-07T09:51:09;1.93;;;0.30;;
69910;SDS011;63555;49.920;17.868;2023-08-07T09:56:10;5.10;;;0.80;;
69910;SDS011;63555;49.920;17.868;2023-08-07T10:01:12;1.02;;;0.25;;
69910;SDS011;63555;49.920;17.868;2023-08-07T10:06:15;3.50;;;0.30;;
69910;SDS011;63555;49.920;17.868;2023-08-07T10:11:16;3.63;;;0.30;;
69910;SDS011;63555;49.920;17.868;2023-08-07T10:16:17;1.75;;;0.20;;
69910;SDS011;63555;49.920;17.868;2023-08-07T10:21:18;3.03;;;1.02;;
69910;SDS011;63555;49.920;17.868;2023-08-07T10:26:19;4.10;;;1.13;;
69910;SDS011;63555;49.920;17.868;2023-08-07T10:31:22;5.75;;;1.48;;
69910;SDS011;63555;49.920;17.868;2023-08-07T10:36:24;4.90;;;1.27;;
69910;SDS011;63555;49.920;17.868;2023-08-07T10:42:06;9.50;;;2.13;;
69910;SDS011;63555;49.920;17.868;2023-08-07T10:47:01;13.00;;;2.53;;
69910;SDS011;63555;49.920;17.868;2023-08-07T10:52:02;15.27;;;2.67;;
69910;SDS011;63555;49.920;17.868;2023-08-07T10:57:12;10.77;;;2.10;;
69910;SDS011;63555;49.920;17.868;2023-08-07T11:02:21;5.65;;;2.15;;
69910;SDS011;63555;49.920;17.868;2023-08-07T11:07:27;4.97;;;1.80;;
69910;SDS011;63555;49.920;17.868;2023-08-07T11:12:29;5.55;;;1.83;;
69910;SDS011;63555;49.920;17.868;2023-08-07T11:17:29;6.37;;;1.50;;
69910;SDS011;63555;49.920;17.868;2023-08-07T11:22:30;4.20;;;1.53;;
69910;SDS011;63555;49.920;17.868;2023-08-07T11:27:30;3.50;;;1.10;;
69910;SDS011;63555;49.920;17.868;2023-08-07T11:32:31;4.17;;;1.60;;
69910;SDS011;63555;49.920;17.868;2023-08-07T11:37:32;5.97;;;2.28;;
69910;SDS011;63555;49.920;17.868;2023-08-07T11:42:32;3.70;;;1.40;;
69910;SDS011;63555;49.920;17.868;2023-08-07T11:47:33;4.80;;;1.57;;
69910;SDS011;63555;49.920;17.868;2023-08-07T11:52:33;5.37;;;2.00;;
69910;SDS011;63555;49.920;17.868;2023-08-07T11:57:33;3.97;;;1.60;;
69910;SDS011;63555;49.920;17.868;2023-08-07T12:02:35;3.60;;;1.53;;
69910;SDS011;63555;49.920;17.868;2023-08-07T12:07:35;3.22;;;1.48;;
69910;SDS011;63555;49.920;17.868;2023-08-07T12:12:36;4.00;;;1.30;;
69910;SDS011;63555;49.920;17.868;2023-08-07T12:17:37;3.03;;;1.13;;
69910;SDS011;63555;49.920;17.868;2023-08-07T12:22:38;5.05;;;1.00;;
69910;SDS011;63555;49.920;17.868;2023-08-07T12:27:38;2.23;;;0.90;;
69910;SDS011;63555;49.920;17.868;2023-08-07T12:32:39;2.40;;;0.90;;
69910;SDS011;63555;49.920;17.868;2023-08-07T12:37:39;2.73;;;1.03;;
69910;SDS011;63555;49.920;17.868;2023-08-07T12:42:40;2.37;;;1.00;;
69910;SDS011;63555;49.920;17.868;2023-08-07T12:47:40;2.17;;;0.70;;
69910;SDS011;63555;49.920;17.868;2023-08-07T12:52:42;2.00;;;0.82;;
69910;SDS011;63555;49.920;17.868;2023-08-07T12:57:43;2.90;;;1.10;;
69910;SDS011;63555;49.920;17.868;2023-08-07T13:02:46;4.97;;;0.90;;
69910;SDS011;63555;49.920;17.868;2023-08-07T13:07:48;3.60;;;1.20;;
69910;SDS011;63555;49.920;17.868;2023-08-07T13:12:48;2.20;;;1.10;;
69910;SDS011;63555;49.920;17.868;2023-08-07T13:17:49;3.37;;;1.40;;
69910;SDS011;63555;49.920;17.868;2023-08-07T13:22:50;2.97;;;1.20;;
69910;SDS011;63555;49.920;17.868;2023-08-07T13:27:50;2.57;;;1.20;;
69910;SDS011;63555;49.920;17.868;2023-08-07T13:32:50;3.27;;;1.27;;
69910;SDS011;63555;49.920;17.868;2023-08-07T13:37:51;2.80;;;1.00;;
69910;SDS011;63555;49.920;17.868;2023-08-07T13:42:51;2.53;;;1.10;;
69910;SDS011;63555;49.920;17.868;2023-08-07T13:47:53;3.33;;;1.30;;
69910;SDS011;63555;49.920;17.868;2023-08-07T13:52:53;4.43;;;1.60;;
69910;SDS011;63555;49.920;17.868;2023-08-07T13:57:54;3.13;;;1.60;;
69910;SDS011;63555;49.920;17.868;2023-08-07T14:02:54;3.75;;;1.40;;
69910;SDS011;63555;49.920;17.868;2023-08-07T14:07:55;2.75;;;1.27;;
69910;SDS011;63555;49.920;17.868;2023-08-07T14:12:57;4.73;;;1.37;;
69910;SDS011;63555;49.920;17.868;2023-08-07T14:17:57;3.23;;;1.50;;
69910;SDS011;63555;49.920;17.868;2023-08-07T14:22:58;2.95;;;1.40;;
69910;SDS011;63555;49.920;17.868;2023-08-07T14:27:59;2.90;;;1.53;;
69910;SDS011;63555;49.920;17.868;2023-08-07T14:32:59;2.50;;;1.20;;
69910;SDS011;63555;49.920;17.868;2023-08-07T14:38:00;3.70;;;1.27;;
69910;SDS011;63555;49.920;17.868;2023-08-07T14:43:00;2.80;;;1.20;;
69910;SDS011;63555;49.920;17.868;2023-08-07T14:48:01;2.60;;;1.27;;
69910;SDS011;63555;49.920;17.868;2023-08-07T14:53:01;3.27;;;1.30;;
69910;SDS011;63555;49.920;17.868;2023-08-07T14:58:01;2.30;;;1.00;;
69910;SDS011;63555;49.920;17.868;2023-08-07T15:03:03;5.50;;;1.38;;
69910;SDS011;63555;49.920;17.868;2023-08-07T15:08:04;3.10;;;1.43;;
69910;SDS011;63555;49.920;17.868;2023-08-07T15:13:04;2.37;;;1.10;;
69910;SDS011;63555;49.920;17.868;2023-08-07T15:18:04;4.43;;;1.53;;
69910;SDS011;63555;49.920;17.868;2023-08-07T15:23:05;2.70;;;1.10;;
69910;SDS011;63555;49.920;17.868;2023-08-07T15:28:05;2.23;;;0.93;;
69910;SDS011;63555;49.920;17.868;2023-08-07T15:33:06;2.40;;;1.05;;
69910;SDS011;63555;49.920;17.868;2023-08-07T15:38:07;2.93;;;1.10;;
69910;SDS011;63555;49.920;17.868;2023-08-07T15:43:07;3.90;;;1.03;;
69910;SDS011;63555;49.920;17.868;2023-08-07T15:48:09;4.80;;;1.40;;
69910;SDS011;63555;49.920;17.868;2023-08-07T15:53:10;3.00;;;1.37;;
69910;SDS011;63555;49.920;17.868;2023-08-07T15:58:10;3.93;;;1.10;;
69910;SDS011;63555;49.920;17.868;2023-08-07T16:03:11;2.77;;;1.00;;
69910;SDS011;63555;49.920;17.868;2023-08-07T16:08:11;2.93;;;1.20;;
69910;SDS011;63555;49.920;17.868;2023-08-07T16:13:12;4.73;;;1.27;;
69910;SDS011;63555;49.920;17.868;2023-08-07T16:18:14;2.83;;;1.02;;
69910;SDS011;63555;49.920;17.868;2023-08-07T16:23:14;2.13;;;0.97;;
69910;SDS011;63555;49.920;17.868;2023-08-07T16:28:14;3.97;;;1.00;;
69910;SDS011;63555;49.920;17.868;2023-08-07T16:33:15;5.57;;;1.30;;
69910;SDS011;63555;49.920;17.868;2023-08-07T16:38:15;3.00;;;0.90;;
69910;SDS011;63555;49.920;17.868;2023-08-07T16:43:16;4.80;;;1.17;;
69910;SDS011;63555;49.920;17.868;2023-08-07T16:48:16;3.37;;;1.03;;
69910;SDS011;63555;49.920;17.868;2023-08-07T16:53:16;2.97;;;1.47;;
69910;SDS011;63555;49.920;17.868;2023-08-07T16:58:17;2.63;;;0.97;;
69910;SDS011;63555;49.920;17.868;2023-08-07T17:03:17;2.20;;;0.80;;
69910;SDS011;63555;49.920;17.868;2023-08-07T17:08:17;3.20;;;0.87;;
69910;SDS011;63555;49.920;17.868;2023-08-07T17:13:18;2.57;;;0.93;;
69910;SDS011;63555;49.920;17.868;2023-08-07T17:18:18;1.70;;;0.67;;
69910;SDS011;63555;49.920;17.868;2023-08-07T17:23:19;1.80;;;0.70;;
69910;SDS011;63555;49.920;17.868;2023-08-07T17:28:19;2.00;;;0.87;;
69910;SDS011;63555;49.920;17.868;2023-08-07T17:33:19;1.77;;;0.60;;
69910;SDS011;63555;49.920;17.868;2023-08-07T17:38:20;2.00;;;0.60;;
69910;SDS011;63555;49.920;17.868;2023-08-07T17:43:20;1.60;;;0.50;;
69910;SDS011;63555;49.920;17.868;2023-08-07T17:48:21;2.47;;;0.60;;
69910;SDS011;63555;49.920;17.868;2023-08-07T17:53:21;2.10;;;0.60;;
69910;SDS011;63555;49.920;17.868;2023-08-07T17:58:22;1.90;;;0.60;;
69910;SDS011;63555;49.920;17.868;2023-08-07T18:03:22;1.80;;;0.60;;
69910;SDS011;63555;49.920;17.868;2023-08-07T18:08:22;4.57;;;0.70;;
69910;SDS011;63555;49.920;17.868;2023-08-07T18:13:23;1.85;;;0.50;;
69910;SDS011;63555;49.920;17.868;2023-08-07T18:18:23;1.60;;;0.60;;
69910;SDS011;63555;49.920;17.868;2023-08-07T18:23:24;1.87;;;0.60;;
69910;SDS011;63555;49.920;17.868;2023-08-07T18:28:24;2.17;;;0.90;;
69910;SDS011;63555;49.920;17.868;2023-08-07T18:33:24;1.70;;;0.50;;
69910;SDS011;63555;49.920;17.868;2023-08-07T18:38:26;2.47;;;0.57;;
69910;SDS011;63555;49.920;17.868;2023-08-07T18:43:27;3.33;;;0.60;;
69910;SDS011;63555;49.920;17.868;2023-08-07T18:48:27;1.70;;;0.70;;
69910;SDS011;63555;49.920;17.868;2023-08-07T18:53:28;1.60;;;0.53;;
69910;SDS011;63555;49.920;17.868;2023-08-07T18:58:28;2.03;;;0.70;;
69910;SDS011;63555;49.920;17.868;2023-08-07T19:03:29;2.40;;;0.77;;
69910;SDS011;63555;49.920;17.868;2023-08-07T19:08:29;1.80;;;0.70;;
69910;SDS011;63555;49.920;17.868;2023-08-07T19:13:29;3.80;;;0.80;;
69910;SDS011;63555;49.920;17.868;2023-08-07T19:18:30;2.00;;;0.67;;
69910;SDS011;63555;49.920;17.868;2023-08-07T19:23:30;3.30;;;0.87;;
69910;SDS011;63555;49.920;17.868;2023-08-07T19:28:32;1.80;;;0.60;;
69910;SDS011;63555;49.920;17.868;2023-08-07T19:33:33;1.80;;;0.65;;
69910;SDS011;63555;49.920;17.868;2023-08-07T19:38:34;1.70;;;0.60;;
69910;SDS011;63555;49.920;17.868;2023-08-07T19:43:34;1.70;;;0.68;;
69910;SDS011;63555;49.920;17.868;2023-08-07T19:48:34;1.73;;;0.60;;
69910;SDS011;63555;49.920;17.868;2023-08-07T19:53:35;2.20;;;0.63;;
69910;SDS011;63555;49.920;17.868;2023-08-07T19:58:35;2.42;;;0.50;;
69910;SDS011;63555;49.920;17.868;2023-08-07T20:03:35;1.70;;;0.60;;
69910;SDS011;63555;49.920;17.868;2023-08-07T20:08:36;1.67;;;0.50;;
69910;SDS011;63555;49.920;17.868;2023-08-07T20:13:36;1.30;;;0.40;;
69910;SDS011;63555;49.920;17.868;2023-08-07T20:18:37;2.53;;;0.70;;
69910;SDS011;63555;49.920;17.868;2023-08-07T20:23:38;1.40;;;0.40;;
69910;SDS011;63555;49.920;17.868;2023-08-07T20:28:38;2.60;;;0.50;;
69910;SDS011;63555;49.920;17.868;2023-08-07T20:33:39;3.10;;;0.70;;
69910;SDS011;63555;49.920;17.868;2023-08-07T20:38:40;1.70;;;0.60;;
69910;SDS011;63555;49.920;17.868;2023-08-07T20:43:40;1.77;;;0.40;;
69910;SDS011;63555;49.920;17.868;2023-08-07T20:48:41;1.47;;;0.47;;
69910;SDS011;63555;49.920;17.868;2023-08-07T20:53:41;1.63;;;0.40;;
69910;SDS011;63555;49.920;17.868;2023-08-07T20:58:42;2.90;;;0.50;;
69910;SDS011;63555;49.920;17.868;2023-08-07T21:03:42;4.73;;;0.70;;
69910;SDS011;63555;49.920;17.868;2023-08-07T21:08:43;3.27;;;0.53;;
69910;SDS011;63555;49.920;17.868;2023-08-07T21:13:43;1.80;;;0.50;;
69910;SDS011;63555;49.920;17.868;2023-08-07T21:18:43;1.97;;;0.70;;
69910;SDS011;63555;49.920;17.868;2023-08-07T21:23:44;2.43;;;0.60;;
69910;SDS011;63555;49.920;17.868;2023-08-07T21:28:44;2.87;;;0.70;;
69910;SDS011;63555;49.920;17.868;2023-08-07T21:33:45;1.90;;;0.70;;
69910;SDS011;63555;49.920;17.868;2023-08-07T21:38:45;5.30;;;0.63;;
69910;SDS011;63555;49.920;17.868;2023-08-07T21:43:45;1.97;;;0.70;;
69910;SDS011;63555;49.920;17.868;2023-08-07T21:48:46;2.13;;;0.90;;
69910;SDS011;63555;49.920;17.868;2023-08-07T21:53:46;2.97;;;0.90;;
69910;SDS011;63555;49.920;17.868;2023-08-07T21:58:47;2.13;;;0.70;;
69910;SDS011;63555;49.920;17.868;2023-08-07T22:03:47;2.00;;;0.70;;
69910;SDS011;63555;49.920;17.868;2023-08-07T22:08:47;2.03;;;0.70;;
69910;SDS011;63555;49.920;17.868;2023-08-07T22:13:48;2.23;;;0.80;;
69910;SDS011;63555;49.920;17.868;2023-08-07T22:18:48;1.70;;;0.60;;
69910;SDS011;63555;49.920;17.868;2023-08-07T22:23:49;2.53;;;0.80;;
69910;SDS011;63555;49.920;17.868;2023-08-07T22:28:49;1.77;;;0.67;;
69910;SDS011;63555;49.920;17.868;2023-08-07T22:33:50;1.77;;;0.70;;
69910;SDS011;63555;49.920;17.868;2023-08-07T22:38:50;4.10;;;1.00;;
69910;SDS011;63555;49.920;17.868;2023-08-07T22:43:50;3.23;;;0.87;;
69910;SDS011;63555;49.920;17.868;2023-08-07T22:48:51;2.20;;;0.73;;
69910;SDS011;63555;49.920;17.868;2023-08-07T22:53:55;2.60;;;0.80;;
69910;SDS011;63555;49.920;17.868;2023-08-07T22:58:56;2.20;;;0.80;;
69910;SDS011;63555;49.920;17.868;2023-08-07T23:03:56;1.97;;;0.70;;
69910;SDS011;63555;49.920;17.868;2023-08-07T23:08:57;3.13;;;0.80;;
69910;SDS011;63555;49.920;17.868;2023-08-07T23:14:00;2.00;;;0.70;;
69910;SDS011;63555;49.920;17.868;2023-08-07T23:19:00;4.37;;;0.90;;
69910;SDS011;63555;49.920;17.868;2023-08-07T23:24:01;4.00;;;0.80;;
69910;SDS011;63555;49.920;17.868;2023-08-07T23:29:01;2.67;;;0.80;;
69910;SDS011;63555;49.920;17.868;2023-08-07T23:34:02;4.53;;;1.70;;
69910;SDS011;63555;49.920;17.868;2023-08-07T23:39:03;4.43;;;0.90;;
69910;SDS011;63555;49.920;17.868;2023-08-07T23:44:03;4.37;;;0.80;;
69910;SDS011;63555;49.920;17.868;2023-08-07T23:49:04;2.60;;;1.00;;
69910;SDS011;63555;49.920;17.868;2023-08-07T23:54:04;4.43;;;1.10;;
69910;SDS011;63555;49.920;17.868;2023-08-07T23:59:05;3.20;;;0.77;;
